Time;durP1;ratioP1;P1;durP2;ratioP2;P2;SDS_P1;SDS_P2;PMS_P1;PMS_P2;Temp;Humidity;BMP_temperature;BMP_pressure;BME280_temperature;BME280_humidity;BME280_pressure;Samples;Min_cycle;Max_cycle;Signal;HPM_P1;HPM_P2
2022/07/14 00:01:26;;;;;;;9.52;3.00;;;;;;;;;;5093778;28;20492;-64
2022/07/14 00:03:52;;;;;;;10.00;3.47;;;;;;;;;;5093946;28;20147;-62
2022/07/14 00:06:19;;;;;;;6.65;2.20;;;;;;;;;;5094059;28;20053;-64
2022/07/14 00:08:45;;;;;;;12.48;2.80;;;;;;;;;;5097667;28;20059;-64
2022/07/14 00:11:11;;;;;;;7.95;2.58;;;;;;;;;;5093876;28;20091;-63
2022/07/14 00:13:38;;;;;;;8.95;2.88;;;;;;;;;;5090986;28;20050;-64
2022/07/14 00:16:04;;;;;;;10.35;2.85;;;;;;;;;;5094749;28;20052;-64
2022/07/14 00:18:31;;;;;;;11.80;2.72;;;;;;;;;;5094240;28;20159;-64
2022/07/14 00:21:02;;;;;;;7.60;1.88;;;;;;;;;;5094257;28;20140;-64
2022/07/14 00:23:29;;;;;;;8.18;2.38;;;;;;;;;;5093630;28;20052;-64
2022/07/14 00:25:55;;;;;;;9.57;2.78;;;;;;;;;;5093008;28;20067;-64
2022/07/14 00:28:22;;;;;;;10.50;3.13;;;;;;;;;;5084292;28;20052;-63
2022/07/14 00:30:49;;;;;;;9.23;2.67;;;;;;;;;;5092948;28;20053;-64
2022/07/14 00:33:16;;;;;;;15.27;3.72;;;;;;;;;;5092913;28;20055;-64
2022/07/14 00:35:42;;;;;;;9.48;2.60;;;;;;;;;;5092428;28;20143;-64
2022/07/14 00:38:08;;;;;;;9.45;3.50;;;;;;;;;;5092781;28;20060;-64
2022/07/14 00:40:35;;;;;;;9.82;2.40;;;;;;;;;;5093986;28;20052;-64
2022/07/14 00:43:01;;;;;;;15.43;3.03;;;;;;;;;;5086008;28;20053;-64
2022/07/14 00:45:28;;;;;;;6.05;2.40;;;;;;;;;;5091144;28;20088;-65
2022/07/14 00:47:54;;;;;;;9.13;2.05;;;;;;;;;;5092482;28;20578;-64
2022/07/14 00:50:20;;;;;;;8.38;2.10;;;;;;;;;;5088552;28;20052;-64
2022/07/14 00:52:48;;;;;;;9.68;2.53;;;;;;;;;;5092903;28;20044;-64
2022/07/14 00:55:14;;;;;;;9.15;2.05;;;;;;;;;;5103463;28;20090;-64
2022/07/14 00:57:41;;;;;;;12.20;2.67;;;;;;;;;;5092293;28;20057;-63
2022/07/14 01:00:09;;;;;;;11.85;3.25;;;;;;;;;;5093753;28;20507;-63
2022/07/14 01:02:36;;;;;;;12.48;3.22;;;;;;;;;;5089233;28;20063;-64
2022/07/14 01:05:03;;;;;;;13.13;3.50;;;;;;;;;;5091427;28;20054;-65
2022/07/14 01:07:29;;;;;;;11.20;3.17;;;;;;;;;;5082210;28;20492;-64
2022/07/14 01:09:56;;;;;;;10.85;2.35;;;;;;;;;;5093805;28;20139;-63
2022/07/14 01:12:22;;;;;;;9.48;2.42;;;;;;;;;;5093463;28;20136;-65
2022/07/14 01:14:49;;;;;;;10.38;3.22;;;;;;;;;;5088901;28;20175;-64
2022/07/14 01:17:15;;;;;;;8.85;2.72;;;;;;;;;;5080414;28;20049;-64
2022/07/14 01:19:41;;;;;;;8.38;2.63;;;;;;;;;;5079576;28;20534;-65
2022/07/14 01:22:08;;;;;;;11.65;3.05;;;;;;;;;;5092291;28;20052;-65
2022/07/14 01:24:34;;;;;;;10.43;3.10;;;;;;;;;;5090139;28;20068;-65
2022/07/14 01:27:01;;;;;;;14.68;3.60;;;;;;;;;;5092137;28;20057;-64
2022/07/14 01:29:27;;;;;;;18.50;3.25;;;;;;;;;;5092276;28;20509;-64
2022/07/14 01:31:54;;;;;;;14.00;2.92;;;;;;;;;;5088647;28;20538;-64
2022/07/14 01:34:20;;;;;;;10.45;2.72;;;;;;;;;;5092155;28;20143;-64
2022/07/14 01:36:49;;;;;;;10.07;2.65;;;;;;;;;;5091327;28;20167;-64
2022/07/14 01:39:15;;;;;;;10.38;3.88;;;;;;;;;;5090438;28;20130;-64
2022/07/14 01:41:42;;;;;;;11.70;3.33;;;;;;;;;;5088886;28;20048;-64
2022/07/14 01:44:10;;;;;;;11.43;2.70;;;;;;;;;;5090677;28;20052;-65
2022/07/14 01:46:37;;;;;;;11.40;3.33;;;;;;;;;;5086833;28;21089;-63
2022/07/14 01:49:05;;;;;;;13.57;2.97;;;;;;;;;;5091529;28;20076;-65
2022/07/14 01:51:31;;;;;;;12.23;3.45;;;;;;;;;;5091270;28;20519;-65
2022/07/14 01:53:57;;;;;;;10.23;3.03;;;;;;;;;;5092608;28;20060;-63
2022/07/14 01:56:24;;;;;;;11.38;2.63;;;;;;;;;;5090907;28;20052;-65
2022/07/14 01:58:50;;;;;;;13.57;3.20;;;;;;;;;;5090697;28;20128;-64
2022/07/14 02:04:02;;;;;;;12.45;3.45;;;;;;;;;;5092092;28;20064;-65
2022/07/14 02:06:29;;;;;;;9.55;3.22;;;;;;;;;;5091029;28;20247;-64
2022/07/14 02:08:56;;;;;;;11.43;3.22;;;;;;;;;;5091398;28;20055;-64
2022/07/14 02:14:07;;;;;;;7.10;2.40;;;;;;;;;;5091020;28;20500;-64
2022/07/14 02:16:33;;;;;;;15.43;3.22;;;;;;;;;;5090570;28;20058;-64
2022/07/14 02:19:00;;;;;;;15.52;2.47;;;;;;;;;;5092883;28;20053;-64
2022/07/14 02:21:27;;;;;;;11.25;2.70;;;;;;;;;;5094158;28;20140;-64
2022/07/14 02:23:54;;;;;;;15.00;2.97;;;;;;;;;;5090519;28;20072;-63
2022/07/14 02:26:20;;;;;;;11.00;2.60;;;;;;;;;;5089236;28;20147;-64
2022/07/14 02:28:47;;;;;;;14.02;3.33;;;;;;;;;;5091734;28;20163;-64
2022/07/14 02:31:14;;;;;;;12.23;3.33;;;;;;;;;;5091647;28;20132;-65
2022/07/14 02:33:41;;;;;;;10.38;2.60;;;;;;;;;;5091212;28;20052;-64
2022/07/14 02:36:08;;;;;;;10.82;3.33;;;;;;;;;;5090839;28;20147;-64
2022/07/14 02:38:36;;;;;;;11.43;2.97;;;;;;;;;;5080878;28;20148;-64
2022/07/14 02:41:04;;;;;;;8.32;3.00;;;;;;;;;;5089133;28;20139;-64
2022/07/14 02:43:31;;;;;;;11.82;2.95;;;;;;;;;;5089420;28;20129;-63
2022/07/14 02:45:58;;;;;;;8.35;2.53;;;;;;;;;;5090607;28;20520;-64
2022/07/14 02:48:25;;;;;;;11.05;3.15;;;;;;;;;;5086825;28;20057;-64
2022/07/14 02:50:57;;;;;;;12.05;3.28;;;;;;;;;;5090823;27;20053;-64
2022/07/14 02:53:23;;;;;;;7.85;3.42;;;;;;;;;;5090280;28;20052;-64
2022/07/14 02:55:49;;;;;;;14.27;2.80;;;;;;;;;;5090959;28;20048;-65
2022/07/14 02:58:18;;;;;;;8.18;2.92;;;;;;;;;;5090593;28;20144;-64
2022/07/14 03:00:44;;;;;;;9.93;2.53;;;;;;;;;;5091973;28;20052;-65
2022/07/14 03:03:10;;;;;;;9.88;2.83;;;;;;;;;;5089322;28;20555;-64
2022/07/14 03:05:37;;;;;;;9.38;3.28;;;;;;;;;;5090699;28;20175;-64
2022/07/14 03:08:04;;;;;;;13.27;2.97;;;;;;;;;;5079183;28;20056;-64
2022/07/14 03:10:31;;;;;;;16.42;3.35;;;;;;;;;;5090833;28;20907;-63
2022/07/14 03:12:57;;;;;;;15.25;3.85;;;;;;;;;;5088265;28;20511;-65
2022/07/14 03:15:23;;;;;;;5.22;2.78;;;;;;;;;;5087951;28;20048;-65
2022/07/14 03:17:50;;;;;;;6.45;2.72;;;;;;;;;;5086541;28;20497;-64
2022/07/14 03:20:16;;;;;;;9.15;3.25;;;;;;;;;;5079388;28;20480;-65
2022/07/14 03:22:43;;;;;;;10.82;3.40;;;;;;;;;;5087551;28;20140;-64
2022/07/14 03:25:09;;;;;;;12.77;3.28;;;;;;;;;;5085115;28;20198;-65
2022/07/14 03:27:36;;;;;;;8.63;3.15;;;;;;;;;;5114495;27;20052;-66
2022/07/14 03:30:02;;;;;;;6.15;2.58;;;;;;;;;;5094754;28;20080;-65
2022/07/14 03:32:30;;;;;;;11.00;3.72;;;;;;;;;;5093862;28;20052;-64
2022/07/14 03:34:57;;;;;;;11.70;2.92;;;;;;;;;;5086993;28;22062;-64
2022/07/14 03:37:23;;;;;;;9.18;3.42;;;;;;;;;;5093723;28;20591;-63
2022/07/14 03:39:50;;;;;;;7.75;2.95;;;;;;;;;;5095001;28;20055;-64
2022/07/14 03:42:16;;;;;;;12.18;3.00;;;;;;;;;;5093152;28;20056;-64
2022/07/14 03:44:44;;;;;;;8.93;3.10;;;;;;;;;;5090252;28;20416;-63
2022/07/14 03:47:11;;;;;;;6.28;2.47;;;;;;;;;;5094264;28;20087;-64
2022/07/14 03:49:37;;;;;;;13.50;2.92;;;;;;;;;;5092336;28;20059;-64
2022/07/14 03:52:04;;;;;;;9.65;2.60;;;;;;;;;;5091254;28;20432;-64
2022/07/14 03:54:30;;;;;;;8.88;3.03;;;;;;;;;;5089040;28;20103;-65
2022/07/14 03:56:56;;;;;;;6.90;2.55;;;;;;;;;;5089406;28;20164;-62
2022/07/14 03:59:23;;;;;;;7.35;3.35;;;;;;;;;;5086001;28;20546;-62
2022/07/14 04:01:49;;;;;;;6.15;2.85;;;;;;;;;;5091811;28;20063;-63
2022/07/14 04:04:16;;;;;;;8.20;2.92;;;;;;;;;;5092364;28;20575;-63
2022/07/14 04:06:42;;;;;;;8.43;3.28;;;;;;;;;;5093324;28;20058;-62
2022/07/14 04:09:08;;;;;;;8.02;3.63;;;;;;;;;;5093876;28;20143;-63
2022/07/14 04:11:35;;;;;;;13.15;4.05;;;;;;;;;;5091697;28;20049;-62
2022/07/14 04:14:01;;;;;;;9.82;3.80;;;;;;;;;;5091897;28;20098;-61
2022/07/14 04:16:27;;;;;;;5.75;3.25;;;;;;;;;;5093148;28;20481;-61
2022/07/14 04:18:54;;;;;;;5.18;2.80;;;;;;;;;;5091564;28;20152;-62
2022/07/14 04:21:20;;;;;;;6.78;2.95;;;;;;;;;;5091356;28;20138;-61
2022/07/14 04:23:47;;;;;;;5.78;3.03;;;;;;;;;;5090372;28;20053;-62
2022/07/14 04:26:13;;;;;;;6.45;2.97;;;;;;;;;;5083827;28;20143;-61
2022/07/14 04:28:40;;;;;;;7.30;3.08;;;;;;;;;;5091073;28;20189;-62
2022/07/14 04:31:08;;;;;;;9.18;3.90;;;;;;;;;;5093320;28;20156;-62
2022/07/14 04:33:36;;;;;;;9.65;3.47;;;;;;;;;;5093431;28;20438;-62
2022/07/14 04:36:09;;;;;;;7.35;3.22;;;;;;;;;;5087921;28;20060;-62
2022/07/14 04:38:42;;;;;;;11.52;3.92;;;;;;;;;;5092554;28;20052;-62
2022/07/14 04:41:09;;;;;;;6.25;3.50;;;;;;;;;;5093328;28;20127;-62
2022/07/14 04:43:37;;;;;;;8.50;3.03;;;;;;;;;;5086461;28;20114;-61
2022/07/14 04:46:03;;;;;;;13.57;3.38;;;;;;;;;;5092759;28;20508;-61
2022/07/14 04:48:29;;;;;;;9.90;3.70;;;;;;;;;;5093638;28;20566;-61
2022/07/14 04:53:48;;;;;;;14.70;3.40;;;;;;;;;;5090986;28;20052;-62
2022/07/14 04:56:14;;;;;;;11.27;3.53;;;;;;;;;;5091134;28;20058;-62
2022/07/14 04:58:40;;;;;;;9.53;3.43;;;;;;;;;;5091628;28;20047;-64
2022/07/14 05:01:07;;;;;;;13.40;3.85;;;;;;;;;;5089495;28;20052;-62
2022/07/14 05:03:34;;;;;;;9.63;2.85;;;;;;;;;;5091211;28;20061;-62
2022/07/14 05:06:01;;;;;;;11.63;3.63;;;;;;;;;;5090267;28;20444;-63
2022/07/14 05:08:27;;;;;;;9.85;4.03;;;;;;;;;;5093475;28;20061;-63
2022/07/14 05:10:53;;;;;;;6.45;3.90;;;;;;;;;;5091112;28;20139;-62
2022/07/14 05:13:20;;;;;;;7.85;3.83;;;;;;;;;;5091305;28;20215;-62
2022/07/14 05:15:46;;;;;;;12.65;4.85;;;;;;;;;;5091615;28;20135;-62
2022/07/14 05:18:12;;;;;;;13.52;4.35;;;;;;;;;;5091930;28;20049;-62
2022/07/14 05:20:39;;;;;;;11.73;4.00;;;;;;;;;;5088967;28;20052;-62
2022/07/14 05:23:05;;;;;;;16.25;4.15;;;;;;;;;;5079194;28;20044;-61
2022/07/14 05:25:32;;;;;;;11.68;3.85;;;;;;;;;;5087888;28;20144;-63
2022/07/14 05:27:58;;;;;;;13.40;3.80;;;;;;;;;;5085746;28;20147;-62
2022/07/14 05:30:24;;;;;;;13.65;4.13;;;;;;;;;;5083566;28;20058;-63
2022/07/14 05:32:51;;;;;;;11.02;4.65;;;;;;;;;;5084679;28;20143;-63
2022/07/14 05:35:17;;;;;;;15.43;4.35;;;;;;;;;;5090102;28;20059;-64
2022/07/14 05:37:43;;;;;;;24.00;4.95;;;;;;;;;;5088742;28;20182;-63
2022/07/14 05:40:10;;;;;;;11.57;3.80;;;;;;;;;;5091952;28;20536;-62
2022/07/14 05:42:43;;;;;;;14.95;4.47;;;;;;;;;;5092845;28;20053;-63
2022/07/14 05:45:09;;;;;;;17.35;3.70;;;;;;;;;;5092303;28;20560;-62
2022/07/14 05:47:38;;;;;;;11.05;3.83;;;;;;;;;;5090918;28;20086;-63
2022/07/14 05:50:04;;;;;;;15.00;3.85;;;;;;;;;;5091827;28;20049;-63
2022/07/14 05:52:30;;;;;;;15.45;4.20;;;;;;;;;;5091616;28;20056;-63
2022/07/14 05:54:57;;;;;;;11.15;3.13;;;;;;;;;;5092339;28;20127;-62
2022/07/14 05:57:24;;;;;;;11.25;3.40;;;;;;;;;;5092496;28;20596;-64
2022/07/14 05:59:50;;;;;;;13.77;3.53;;;;;;;;;;5091758;28;20048;-62
2022/07/14 06:02:16;;;;;;;13.23;3.35;;;;;;;;;;5090965;28;20057;-61
2022/07/14 06:04:43;;;;;;;16.13;3.10;;;;;;;;;;5089898;28;20140;-63
2022/07/14 06:07:09;;;;;;;18.88;3.65;;;;;;;;;;5091210;28;20052;-63
2022/07/14 06:09:36;;;;;;;18.27;3.28;;;;;;;;;;5092979;28;20080;-63
2022/07/14 06:12:05;;;;;;;11.43;3.45;;;;;;;;;;5090951;28;20131;-63
2022/07/14 06:14:32;;;;;;;10.88;3.13;;;;;;;;;;5087910;28;20079;-63
2022/07/14 06:16:58;;;;;;;13.50;3.63;;;;;;;;;;5090140;28;20059;-63
2022/07/14 06:19:24;;;;;;;8.27;2.90;;;;;;;;;;5091381;28;20156;-64
2022/07/14 06:21:51;;;;;;;12.48;3.25;;;;;;;;;;5090987;28;20054;-65
2022/07/14 06:24:17;;;;;;;19.00;4.05;;;;;;;;;;5090697;28;20472;-63
2022/07/14 06:26:44;;;;;;;14.80;3.35;;;;;;;;;;5095196;28;20095;-64
2022/07/14 06:29:10;;;;;;;10.55;3.17;;;;;;;;;;5091082;28;20103;-64
2022/07/14 06:31:38;;;;;;;12.70;3.17;;;;;;;;;;5092127;28;20083;-63
2022/07/14 06:34:04;;;;;;;7.72;2.15;;;;;;;;;;5091748;28;20056;-63
2022/07/14 06:36:31;;;;;;;10.82;2.95;;;;;;;;;;5086244;28;20074;-63
2022/07/14 06:38:58;;;;;;;10.27;2.08;;;;;;;;;;5090854;28;20626;-62
2022/07/14 06:41:24;;;;;;;13.07;2.65;;;;;;;;;;5091982;28;20514;-60
2022/07/14 06:43:50;;;;;;;14.05;2.90;;;;;;;;;;5089984;28;20045;-63
2022/07/14 06:46:17;;;;;;;17.25;3.58;;;;;;;;;;5091292;28;20136;-67
2022/07/14 06:48:44;;;;;;;9.73;2.83;;;;;;;;;;5090685;28;20106;-67
2022/07/14 06:51:10;;;;;;;17.55;3.22;;;;;;;;;;5091128;28;20398;-67
2022/07/14 06:53:37;;;;;;;9.05;2.70;;;;;;;;;;5090978;28;20476;-66
2022/07/14 06:56:03;;;;;;;13.65;3.00;;;;;;;;;;5091278;28;20045;-66
2022/07/14 06:58:30;;;;;;;9.80;3.00;;;;;;;;;;5091408;28;20147;-67
2022/07/14 07:00:56;;;;;;;11.02;2.90;;;;;;;;;;5090678;28;20434;-66
2022/07/14 07:03:22;;;;;;;11.25;3.17;;;;;;;;;;5088931;28;20048;-65
2022/07/14 07:08:34;;;;;;;11.03;2.70;;;;;;;;;;5091546;28;20570;-68
2022/07/14 07:11:00;;;;;;;13.13;2.90;;;;;;;;;;5089055;28;20263;-67
2022/07/14 07:13:26;;;;;;;13.48;2.83;;;;;;;;;;5089609;28;20135;-67
2022/07/14 07:15:56;;;;;;;10.50;2.58;;;;;;;;;;5090749;28;20052;-68
2022/07/14 07:18:23;;;;;;;11.50;2.63;;;;;;;;;;5090946;28;20056;-67
2022/07/14 07:20:49;;;;;;;9.50;2.80;;;;;;;;;;5090344;28;20064;-67
2022/07/14 07:23:18;;;;;;;9.93;2.58;;;;;;;;;;5091816;28;20049;-66
2022/07/14 07:25:44;;;;;;;13.00;3.13;;;;;;;;;;5079877;28;20140;-69
2022/07/14 07:28:10;;;;;;;7.40;2.28;;;;;;;;;;5086882;28;20948;-68
2022/07/14 07:30:37;;;;;;;5.10;1.75;;;;;;;;;;5090409;28;20487;-66
2022/07/14 07:33:03;;;;;;;15.77;2.20;;;;;;;;;;5090666;28;20067;-66
2022/07/14 07:35:30;;;;;;;9.98;2.65;;;;;;;;;;5090416;28;20131;-68
2022/07/14 07:38:04;;;;;;;10.68;2.60;;;;;;;;;;5090451;28;20059;-66
2022/07/14 07:40:30;;;;;;;7.90;2.03;;;;;;;;;;5090463;28;20532;-67
2022/07/14 07:42:57;;;;;;;9.68;2.92;;;;;;;;;;5091850;28;20571;-66
2022/07/14 07:45:24;;;;;;;8.65;2.33;;;;;;;;;;5089950;28;20052;-66
2022/07/14 07:47:51;;;;;;;9.27;2.45;;;;;;;;;;5086321;28;20111;-67
2022/07/14 07:50:17;;;;;;;13.43;3.03;;;;;;;;;;5084852;28;22161;-65
2022/07/14 07:52:44;;;;;;;9.15;2.30;;;;;;;;;;5083969;28;20519;-65
2022/07/14 07:55:10;;;;;;;9.73;2.45;;;;;;;;;;5089713;28;20527;-64
2022/07/14 07:57:50;;;;;;;12.95;2.03;;;;;;;;;;5090385;28;20056;-65
2022/07/14 08:00:16;;;;;;;14.60;2.95;;;;;;;;;;5089757;28;20078;-65
2022/07/14 08:02:53;;;;;;;8.88;1.50;;;;;;;;;;5092479;28;20055;-66
2022/07/14 08:05:25;;;;;;;9.63;1.77;;;;;;;;;;5088893;28;20516;-66
2022/07/14 08:08:11;;;;;;;6.65;2.10;;;;;;;;;;5090207;28;20053;-64
2022/07/14 08:10:39;;;;;;;4.40;1.52;;;;;;;;;;5090083;28;20057;-66
2022/07/14 08:13:06;;;;;;;5.35;1.58;;;;;;;;;;5090777;28;20058;-66
2022/07/14 08:15:33;;;;;;;9.20;2.15;;;;;;;;;;5092700;28;20542;-65
2022/07/14 08:17:59;;;;;;;6.35;1.23;;;;;;;;;;5093137;28;20106;-65
2022/07/14 08:20:25;;;;;;;8.00;1.92;;;;;;;;;;5093753;28;20064;-66
2022/07/14 08:22:52;;;;;;;5.43;1.35;;;;;;;;;;5092562;28;20131;-66
2022/07/14 08:25:18;;;;;;;6.57;1.60;;;;;;;;;;5087842;28;20053;-65
2022/07/14 08:27:45;;;;;;;7.88;1.88;;;;;;;;;;5094401;28;20529;-67
2022/07/14 08:30:11;;;;;;;7.25;1.90;;;;;;;;;;5092422;28;20049;-65
2022/07/14 08:32:39;;;;;;;7.03;2.10;;;;;;;;;;5091876;28;20106;-66
2022/07/14 08:35:07;;;;;;;5.15;1.90;;;;;;;;;;5093245;28;20978;-66
2022/07/14 08:37:34;;;;;;;9.40;1.85;;;;;;;;;;5087465;28;20052;-66
2022/07/14 08:40:08;;;;;;;4.43;1.73;;;;;;;;;;5091806;28;20060;-65
2022/07/14 08:42:35;;;;;;;7.07;1.88;;;;;;;;;;5092346;28;20052;-65
2022/07/14 08:45:05;;;;;;;4.43;1.67;;;;;;;;;;5093436;28;20052;-65
2022/07/14 08:47:32;;;;;;;5.50;1.65;;;;;;;;;;5092946;28;20135;-66
2022/07/14 08:49:58;;;;;;;8.23;1.88;;;;;;;;;;5092239;28;20171;-70
2022/07/14 08:52:28;;;;;;;9.75;1.67;;;;;;;;;;5092694;28;20053;-69
2022/07/14 08:54:55;;;;;;;9.27;2.20;;;;;;;;;;5090892;28;20433;-67
2022/07/14 08:57:21;;;;;;;8.05;1.95;;;;;;;;;;5093372;28;20579;-67
2022/07/14 08:59:48;;;;;;;4.88;1.23;;;;;;;;;;5090389;28;20063;-68
2022/07/14 09:02:14;;;;;;;7.35;1.75;;;;;;;;;;5090703;28;20048;-66
2022/07/14 09:04:44;;;;;;;6.50;1.48;;;;;;;;;;5092668;28;20234;-66
2022/07/14 09:07:12;;;;;;;6.68;1.65;;;;;;;;;;5091665;28;20076;-66
2022/07/14 09:09:38;;;;;;;5.30;1.40;;;;;;;;;;5093190;28;20146;-66
2022/07/14 09:12:06;;;;;;;6.35;1.77;;;;;;;;;;5093823;28;20140;-66
2022/07/14 09:17:20;;;;;;;5.70;1.48;;;;;;;;;;5091082;28;20522;-66
2022/07/14 09:20:06;;;;;;;2.75;1.00;;;;;;;;;;5088885;28;20571;-68
2022/07/14 09:22:36;;;;;;;6.35;1.70;;;;;;;;;;5086540;28;20148;-68
2022/07/14 09:25:04;;;;;;;4.43;1.67;;;;;;;;;;5089888;28;20059;-68
2022/07/14 09:27:31;;;;;;;2.75;1.20;;;;;;;;;;5092435;28;20055;-68
2022/07/14 09:29:57;;;;;;;4.95;1.45;;;;;;;;;;5091821;28;20144;-67
2022/07/14 09:32:43;;;;;;;5.93;2.03;;;;;;;;;;5091980;28;20139;-68
2022/07/14 09:35:11;;;;;;;6.85;1.30;;;;;;;;;;5090555;28;20056;-69
2022/07/14 09:37:38;;;;;;;7.63;1.20;;;;;;;;;;5091653;28;20131;-68
2022/07/14 09:40:09;;;;;;;7.82;1.00;;;;;;;;;;5092868;28;21178;-66
2022/07/14 09:42:46;;;;;;;4.03;1.08;;;;;;;;;;5092252;28;20135;-66
2022/07/14 09:45:14;;;;;;;5.95;1.20;;;;;;;;;;5071113;28;20131;-66
2022/07/14 09:47:50;;;;;;;7.40;2.17;;;;;;;;;;5089113;28;20147;-67
2022/07/14 09:50:38;;;;;;;9.50;1.10;;;;;;;;;;5091374;28;20053;-66
2022/07/14 09:53:23;;;;;;;4.25;1.20;;;;;;;;;;5081136;28;20052;-65
2022/07/14 09:55:57;;;;;;;4.45;1.13;;;;;;;;;;5092475;28;20079;-66
2022/07/14 09:58:24;;;;;;;5.47;1.25;;;;;;;;;;5092166;28;20508;-67
2022/07/14 10:01:06;;;;;;;6.75;1.40;;;;;;;;;;5092090;28;20052;-69
2022/07/14 10:03:35;;;;;;;3.53;1.10;;;;;;;;;;5090497;28;20056;-67
2022/07/14 10:06:02;;;;;;;2.72;1.10;;;;;;;;;;5092283;28;20114;-67
2022/07/14 10:08:53;;;;;;;4.30;1.20;;;;;;;;;;5072255;28;20083;-67
2022/07/14 10:11:19;;;;;;;4.35;1.02;;;;;;;;;;5087299;28;20053;-67
2022/07/14 10:13:46;;;;;;;4.32;1.20;;;;;;;;;;5090107;28;20060;-67
2022/07/14 10:16:14;;;;;;;2.40;1.00;;;;;;;;;;5090558;28;20114;-67
2022/07/14 10:18:42;;;;;;;2.55;1.10;;;;;;;;;;5084265;28;20574;-66
2022/07/14 10:21:09;;;;;;;4.63;1.45;;;;;;;;;;5083190;28;20088;-68
2022/07/14 10:23:36;;;;;;;3.35;0.90;;;;;;;;;;5091967;28;20058;-67
2022/07/14 10:26:05;;;;;;;2.33;0.90;;;;;;;;;;5091449;28;20147;-67
2022/07/14 10:28:33;;;;;;;1.73;0.82;;;;;;;;;;5090964;28;20052;-67
2022/07/14 10:31:02;;;;;;;3.60;1.05;;;;;;;;;;5091455;28;20131;-67
2022/07/14 10:33:44;;;;;;;6.85;1.02;;;;;;;;;;5091498;28;20087;-67
2022/07/14 10:36:25;;;;;;;6.80;1.27;;;;;;;;;;5091477;28;20063;-66
2022/07/14 10:39:07;;;;;;;2.92;1.10;;;;;;;;;;5088795;28;20533;-67
2022/07/14 10:41:51;;;;;;;8.30;1.30;;;;;;;;;;5085333;28;20140;-67
2022/07/14 10:44:22;;;;;;;3.72;1.20;;;;;;;;;;5088118;28;20060;-67
2022/07/14 10:46:50;;;;;;;5.15;1.00;;;;;;;;;;5089951;28;20080;-67
2022/07/14 10:49:17;;;;;;;3.92;1.10;;;;;;;;;;5075421;28;20048;-67
2022/07/14 10:51:50;;;;;;;5.68;1.25;;;;;;;;;;5084534;28;20122;-67
2022/07/14 10:54:19;;;;;;;3.22;1.17;;;;;;;;;;5088212;28;20056;-68
2022/07/14 10:57:17;;;;;;;5.13;0.98;;;;;;;;;;5082269;28;20472;-67
2022/07/14 10:59:44;;;;;;;6.00;1.55;;;;;;;;;;5086325;28;20063;-67
2022/07/14 11:02:14;;;;;;;2.38;0.90;;;;;;;;;;5089179;28;20056;-66
2022/07/14 11:04:59;;;;;;;5.80;1.40;;;;;;;;;;5090762;28;20570;-65
2022/07/14 11:07:33;;;;;;;3.38;1.30;;;;;;;;;;5089666;28;20144;-67
2022/07/14 11:10:00;;;;;;;3.40;0.85;;;;;;;;;;5095223;28;20106;-65
2022/07/14 11:12:27;;;;;;;2.92;1.00;;;;;;;;;;5092127;27;20168;-66
2022/07/14 11:14:54;;;;;;;4.38;1.20;;;;;;;;;;5088553;28;20063;-67
2022/07/14 11:17:32;;;;;;;3.63;0.82;;;;;;;;;;5091228;28;20088;-67
2022/07/14 11:19:59;;;;;;;4.43;1.20;;;;;;;;;;5089988;28;20108;-66
2022/07/14 11:22:25;;;;;;;3.33;1.10;;;;;;;;;;5089127;28;20477;-65
2022/07/14 11:24:56;;;;;;;2.28;0.82;;;;;;;;;;5091541;28;20059;-65
2022/07/14 11:27:36;;;;;;;2.22;0.82;;;;;;;;;;5091704;28;20045;-67
2022/07/14 11:30:18;;;;;;;2.10;0.90;;;;;;;;;;5083575;28;20048;-67
2022/07/14 11:32:44;;;;;;;2.67;0.70;;;;;;;;;;5083823;28;20110;-67
2022/07/14 11:37:59;;;;;;;4.63;1.15;;;;;;;;;;5089276;28;20087;-68
2022/07/14 11:40:44;;;;;;;2.92;0.98;;;;;;;;;;5090752;28;20157;-68
2022/07/14 11:43:36;;;;;;;7.10;1.08;;;;;;;;;;5076916;28;20599;-68
2022/07/14 11:46:04;;;;;;;3.42;1.10;;;;;;;;;;5089157;28;20567;-68
2022/07/14 11:48:32;;;;;;;1.75;0.73;;;;;;;;;;5088851;28;20617;-68
2022/07/14 11:51:07;;;;;;;1.90;0.70;;;;;;;;;;5088194;28;20080;-68
2022/07/14 11:53:34;;;;;;;2.75;0.80;;;;;;;;;;5093368;28;20176;-68
2022/07/14 11:56:01;;;;;;;2.92;0.80;;;;;;;;;;5092500;28;20136;-68
2022/07/14 11:58:29;;;;;;;2.20;0.70;;;;;;;;;;5090319;28;20167;-66
2022/07/14 12:00:56;;;;;;;1.95;0.70;;;;;;;;;;5092639;28;20059;-66
2022/07/14 12:03:23;;;;;;;1.30;0.68;;;;;;;;;;5091026;28;20059;-67
2022/07/14 12:05:52;;;;;;;1.65;0.75;;;;;;;;;;5092571;28;20053;-67
2022/07/14 12:08:23;;;;;;;2.28;0.68;;;;;;;;;;5092379;28;20048;-67
2022/07/14 12:10:49;;;;;;;1.90;0.60;;;;;;;;;;5075454;28;20141;-68
2022/07/14 12:13:17;;;;;;;6.28;0.70;;;;;;;;;;5079847;28;20059;-68
2022/07/14 12:15:43;;;;;;;2.88;1.08;;;;;;;;;;5082312;28;20049;-68
2022/07/14 12:18:11;;;;;;;3.60;0.80;;;;;;;;;;5081566;28;20110;-68
2022/07/14 12:20:47;;;;;;;8.68;1.00;;;;;;;;;;5081633;28;20053;-68
2022/07/14 12:23:14;;;;;;;2.50;1.05;;;;;;;;;;5086943;28;20052;-65
2022/07/14 12:25:43;;;;;;;2.50;0.85;;;;;;;;;;5090630;28;20122;-68
2022/07/14 12:28:10;;;;;;;3.85;0.80;;;;;;;;;;5092027;28;20564;-67
2022/07/14 12:30:51;;;;;;;5.75;1.20;;;;;;;;;;5089579;28;20084;-68
2022/07/14 12:33:22;;;;;;;5.15;1.40;;;;;;;;;;5092744;28;20902;-67
2022/07/14 12:35:50;;;;;;;6.47;1.67;;;;;;;;;;5088318;28;20056;-66
2022/07/14 12:38:18;;;;;;;3.60;1.05;;;;;;;;;;5091192;28;20135;-66
2022/07/14 12:41:11;;;;;;;5.03;1.48;;;;;;;;;;5092022;28;20064;-65
2022/07/14 12:43:38;;;;;;;3.50;1.23;;;;;;;;;;5088881;27;20280;-65
2022/07/14 12:46:09;;;;;;;2.83;1.20;;;;;;;;;;5091534;28;20052;-66
2022/07/14 12:48:52;;;;;;;4.80;1.10;;;;;;;;;;5091349;28;21129;-67
2022/07/14 12:51:27;;;;;;;6.65;1.27;;;;;;;;;;5092718;28;20135;-66
2022/07/14 12:53:59;;;;;;;4.43;1.38;;;;;;;;;;5096154;28;20143;-66
2022/07/14 12:56:26;;;;;;;4.13;1.42;;;;;;;;;;5091260;28;20051;-65
2022/07/14 12:58:56;;;;;;;10.60;1.23;;;;;;;;;;5091616;28;20485;-65
2022/07/14 13:01:24;;;;;;;4.50;1.02;;;;;;;;;;5079186;28;20083;-67
2022/07/14 13:03:58;;;;;;;5.15;1.60;;;;;;;;;;5090739;28;20041;-65
2022/07/14 13:06:26;;;;;;;6.05;1.92;;;;;;;;;;5091062;28;20052;-64
2022/07/14 13:08:52;;;;;;;3.15;1.30;;;;;;;;;;5083055;28;20581;-66
2022/07/14 13:11:19;;;;;;;3.30;1.30;;;;;;;;;;5089518;28;20131;-66
2022/07/14 13:13:48;;;;;;;6.55;1.70;;;;;;;;;;5090189;28;20052;-66
2022/07/14 13:16:18;;;;;;;6.90;1.50;;;;;;;;;;5091367;27;20468;-64
2022/07/14 13:19:04;;;;;;;8.20;1.85;;;;;;;;;;5082365;28;20100;-66
2022/07/14 13:21:49;;;;;;;4.72;1.20;;;;;;;;;;5089950;28;20515;-65
2022/07/14 13:24:15;;;;;;;6.47;2.00;;;;;;;;;;5089258;28;20056;-65
2022/07/14 13:26:43;;;;;;;7.22;1.52;;;;;;;;;;5085569;28;20130;-65
2022/07/14 13:29:10;;;;;;;4.22;1.35;;;;;;;;;;5084092;28;20070;-66
2022/07/14 13:31:36;;;;;;;5.28;1.27;;;;;;;;;;5087935;28;20056;-67
2022/07/14 13:34:02;;;;;;;3.13;1.02;;;;;;;;;;5089594;28;20110;-67
2022/07/14 13:36:29;;;;;;;3.47;1.10;;;;;;;;;;5090068;28;20049;-64
2022/07/14 13:38:56;;;;;;;5.00;1.10;;;;;;;;;;5090657;28;20499;-65
2022/07/14 13:41:23;;;;;;;6.25;1.20;;;;;;;;;;5091427;28;20052;-66
2022/07/14 13:43:56;;;;;;;4.97;1.08;;;;;;;;;;5090122;28;20095;-67
2022/07/14 13:46:23;;;;;;;3.10;0.98;;;;;;;;;;5090265;28;20056;-65
2022/07/14 13:48:49;;;;;;;4.50;1.13;;;;;;;;;;5088112;28;20062;-64
2022/07/14 13:54:01;;;;;;;6.32;1.10;;;;;;;;;;5083318;28;20053;-65
2022/07/14 13:56:29;;;;;;;3.25;1.10;;;;;;;;;;5083860;28;20451;-64
2022/07/14 13:58:56;;;;;;;3.53;1.05;;;;;;;;;;5083203;28;20049;-65
2022/07/14 14:01:22;;;;;;;5.22;0.90;;;;;;;;;;5087440;28;20052;-63
2022/07/14 14:03:49;;;;;;;5.65;1.27;;;;;;;;;;5087589;28;20538;-65
2022/07/14 14:06:35;;;;;;;6.07;1.05;;;;;;;;;;5088905;28;20060;-63
2022/07/14 14:09:02;;;;;;;3.10;1.20;;;;;;;;;;5086592;28;20131;-66
2022/07/14 14:11:29;;;;;;;3.28;1.25;;;;;;;;;;5089829;28;20101;-68
2022/07/14 14:13:56;;;;;;;7.82;1.42;;;;;;;;;;5088542;28;20139;-66
2022/07/14 14:16:22;;;;;;;1.67;0.70;;;;;;;;;;5082487;28;20052;-66
2022/07/14 14:18:48;;;;;;;2.47;0.80;;;;;;;;;;5086156;28;20057;-66
2022/07/14 14:21:16;;;;;;;1.45;0.82;;;;;;;;;;5089589;28;20052;-68
2022/07/14 14:23:43;;;;;;;3.85;1.17;;;;;;;;;;5075339;28;20053;-65
2022/07/14 14:26:09;;;;;;;2.03;0.73;;;;;;;;;;5084865;28;20066;-65
2022/07/14 14:28:36;;;;;;;2.15;0.55;;;;;;;;;;5087486;28;20510;-64
2022/07/14 14:31:04;;;;;;;2.78;0.70;;;;;;;;;;5090261;28;20045;-65
2022/07/14 14:33:31;;;;;;;1.88;0.77;;;;;;;;;;5080774;28;20057;-66
2022/07/14 14:35:57;;;;;;;2.45;0.82;;;;;;;;;;5088063;28;20147;-67
2022/07/14 14:38:24;;;;;;;3.00;0.95;;;;;;;;;;5089225;28;20135;-66
2022/07/14 14:40:50;;;;;;;5.70;0.80;;;;;;;;;;5091403;28;20052;-68
2022/07/14 14:43:17;;;;;;;2.08;0.82;;;;;;;;;;5089039;28;20037;-66
2022/07/14 14:45:47;;;;;;;1.35;0.70;;;;;;;;;;5090509;28;20134;-65
2022/07/14 14:48:14;;;;;;;0.75;0.60;;;;;;;;;;5089778;28;20079;-65
2022/07/14 14:50:41;;;;;;;6.68;0.95;;;;;;;;;;5089342;28;20557;-67
2022/07/14 14:53:07;;;;;;;5.07;0.90;;;;;;;;;;5090788;28;20048;-65
2022/07/14 14:55:34;;;;;;;5.50;1.10;;;;;;;;;;5095022;28;20135;-65
2022/07/14 14:58:00;;;;;;;4.65;1.60;;;;;;;;;;5092882;28;20143;-64
2022/07/14 15:00:27;;;;;;;3.40;0.60;;;;;;;;;;5092048;28;20198;-66
2022/07/14 15:02:53;;;;;;;2.15;0.90;;;;;;;;;;5092304;28;20053;-66
2022/07/14 15:05:19;;;;;;;2.10;0.88;;;;;;;;;;5088505;28;20059;-67